Sawyer International Airport Marquette US
ICAO: KSAW
IATA: SAW
Category: Medium
Scheduled Services: No

Elevation: 1221 ft
TransAlt. 18000 ft.

Airport Communications:
AWOS 3:118.375
MINNEAPOLIS CNTR:119.1
CTAF:119.975
GND:121.65
GREEN BAY RDO:123.6
TWR:119.975
UNICOM:122.7

KSAW Zoom In..

If Map Doesn't Load, Click Here

Runways:

(A) RW 01 length 12366 ft width 150 ft
ILS 110.10 / hdg 13

(B) RW 19 length 12366 ft width 150 ft
---- / hdg 193

Location; KSAW
Day. 26 / Time. 09.58 Zulu
* Altimeter: 29.84
* Temperature: 06° c. 42.8°f.
* Wind from: 260° Speed 05 kn.
Dewpoint: 04° c.
Visibility: 10 Statute Miles.
Clouds: Broken 3300 ft.

KSAW 260958Z AUTO 26005KT 10SM BKN033 06/04 A2984 RMK AO2 T00600043


Wind From 260°
Speed 05 kn.

 
 
jpsmedia.com for Web Design worldairports.se 2018   terms of use